Kerens, Texas
Current Conditions -  °F | °C
As of 10:53 PM on Sunday 21 Dec 2014 (Local Time) from KCRS Reporting Station
Overcast Overcast  
Wind Chill: 54°   Ceiling: 1400
Heat Index: 54°   Visibility: 10mi
Dew Point: 49°   Wind: 14mph
Humidity: 83%   Direction: 180°S
Pressure: 29.83"   Gusts: NA
Location:  32.13°N, 96.23°W
Report Text: KCRS 220453Z AUTO 18012KT 10SM BKN014 OVC029 12/09 A2983 RMK AO2 SLP100 T01220094
Loading
Personal Weather Stations






























Interactive Weather Map New forecast layout! Learn more

10-Day Weather Forecast

Advertisements
Track Severe Weather on mobile